Time;durP1;ratioP1;P1;durP2;ratioP2;P2;SDS_P1;SDS_P2;PMS_P1;PMS_P2;Temp;Humidity;BMP_temperature;BMP_pressure;BME280_temperature;BME280_humidity;BME280_pressure;Samples;Min_cycle;Max_cycle;Signal;HPM_P1;HPM_P2
2022/09/15 00:04:17;;;;;;;10.73;5.53;;;17.20;92.30;;;;;;5091232;28;20203;-94
2022/09/15 00:06:46;;;;;;;13.90;6.47;;;17.20;92.40;;;;;;5093208;28;20283;-95
2022/09/15 00:09:22;;;;;;;9.23;4.97;;;17.30;92.20;;;;;;5085536;28;20202;-96
2022/09/15 00:11:51;;;;;;;7.03;4.70;;;17.30;92.20;;;;;;5093688;28;20194;-95
2022/09/15 00:14:19;;;;;;;6.67;4.77;;;17.30;92.10;;;;;;5094924;28;20207;-94
2022/09/15 00:16:51;;;;;;;8.77;5.47;;;17.30;92.10;;;;;;5093670;28;20804;-94
2022/09/15 00:19:23;;;;;;;14.10;6.57;;;17.40;92.20;;;;;;5093116;28;20199;-96
2022/09/15 00:21:51;;;;;;;17.30;7.43;;;17.40;92.50;;;;;;5087684;28;20230;-95
2022/09/15 00:24:19;;;;;;;12.40;6.07;;;17.40;92.20;;;;;;5091779;28;21356;-94
2022/09/15 00:26:46;;;;;;;15.03;6.83;;;17.40;92.20;;;;;;5092012;28;20243;-94
2022/09/15 00:29:13;;;;;;;11.17;6.67;;;17.50;92.20;;;;;;5093078;28;20223;-94
2022/09/15 00:31:41;;;;;;;14.27;7.67;;;17.50;92.10;;;;;;5078697;28;20222;-94
2022/09/15 00:34:13;;;;;;;12.20;6.83;;;17.50;92.10;;;;;;5091892;28;20201;-95
2022/09/15 00:36:41;;;;;;;9.80;6.13;;;17.50;92.40;;;;;;5089732;28;20233;-94
2022/09/15 00:39:14;;;;;;;9.03;7.07;;;17.50;92.30;;;;;;5093024;28;20202;-92
2022/09/15 00:41:43;;;;;;;10.30;5.93;;;17.50;92.30;;;;;;5093784;28;20643;-94
2022/09/15 00:44:46;;;;;;;10.33;7.07;;;17.60;92.30;;;;;;5093644;28;20217;-94
2022/09/15 00:47:15;;;;;;;9.43;7.20;;;17.60;92.70;;;;;;5089438;28;20301;-94
2022/09/15 00:49:55;;;;;;;13.23;7.50;;;17.60;92.40;;;;;;5084738;28;20203;-94
2022/09/15 00:52:37;;;;;;;9.73;7.00;;;17.60;92.60;;;;;;5094514;28;20718;-94
2022/09/15 00:55:09;;;;;;;12.53;8.27;;;17.60;92.30;;;;;;5098789;28;20290;-93
2022/09/15 00:57:40;;;;;;;15.50;9.17;;;17.70;92.20;;;;;;5093841;28;20274;-94
2022/09/15 01:00:11;;;;;;;14.80;9.00;;;17.70;92.20;;;;;;5094479;28;20199;-94
2022/09/15 01:02:46;;;;;;;10.90;8.00;;;17.70;92.10;;;;;;5096096;28;20255;-94
2022/09/15 01:05:27;;;;;;;17.03;9.70;;;17.70;92.10;;;;;;5097765;28;20220;-94
2022/09/15 01:08:03;;;;;;;20.50;10.17;;;17.70;92.00;;;;;;5096259;28;20221;-94
2022/09/15 01:10:35;;;;;;;12.23;8.13;;;17.70;91.90;;;;;;5087669;28;20640;-94
2022/09/15 01:16:02;;;;;;;9.63;6.87;;;17.70;92.00;;;;;;5094380;28;20309;-94
2022/09/15 01:18:40;;;;;;;11.80;8.50;;;17.70;92.10;;;;;;5097205;28;20216;-94
2022/09/15 01:21:18;;;;;;;11.40;8.10;;;17.70;91.90;;;;;;5098274;28;20607;-94
2022/09/15 01:24:29;;;;;;;11.60;8.07;;;17.70;92.10;;;;;;5097947;28;20242;-94
2022/09/15 01:27:06;;;;;;;17.63;9.27;;;17.70;92.00;;;;;;5096612;28;20284;-94
2022/09/15 01:30:01;;;;;;;12.10;7.90;;;17.70;91.80;;;;;;5094625;28;20211;-94
2022/09/15 01:35:42;;;;;;;15.77;10.03;;;17.70;91.80;;;;;;5090939;28;20210;-93
2022/09/15 01:38:21;;;;;;;12.97;9.10;;;17.70;91.90;;;;;;5095433;28;20195;-92
2022/09/15 01:40:53;;;;;;;12.67;9.87;;;17.70;92.00;;;;;;5096331;28;20200;-95
2022/09/15 01:43:23;;;;;;;16.00;10.33;;;17.70;92.30;;;;;;5096644;28;20207;-92
2022/09/15 01:45:52;;;;;;;12.87;9.40;;;17.70;92.10;;;;;;5096704;28;20219;-94
2022/09/15 01:48:25;;;;;;;14.10;10.63;;;17.70;92.10;;;;;;5096605;28;20207;-94
2022/09/15 01:50:59;;;;;;;20.70;10.83;;;17.70;92.40;;;;;;5094650;28;20954;-93
2022/09/15 01:53:31;;;;;;;14.90;9.20;;;17.70;92.30;;;;;;5094267;28;20203;-95
2022/09/15 01:56:05;;;;;;;13.13;8.37;;;17.70;92.20;;;;;;5097531;28;20238;-95
2022/09/15 01:58:32;;;;;;;17.90;10.70;;;17.80;92.30;;;;;;5108901;28;20202;-95
2022/09/15 02:01:30;;;;;;;18.80;11.20;;;17.70;92.20;;;;;;5154953;22;20231;-94
2022/09/15 02:04:11;;;;;;;13.17;9.37;;;17.80;92.30;;;;;;5119874;28;20282;-95
2022/09/15 02:06:43;;;;;;;12.37;9.73;;;17.80;92.30;;;;;;5107400;28;20223;-95
2022/09/15 02:09:17;;;;;;;10.40;8.23;;;17.80;92.50;;;;;;5102737;28;20205;-95
2022/09/15 02:11:58;;;;;;;15.40;10.13;;;17.80;92.30;;;;;;5096481;28;20228;-96
2022/09/15 02:14:37;;;;;;;14.87;9.37;;;17.80;92.40;;;;;;5085717;28;20204;-95
2022/09/15 02:17:19;;;;;;;15.17;9.93;;;17.80;92.40;;;;;;5098785;28;20204;-95
2022/09/15 02:19:51;;;;;;;12.33;9.53;;;17.80;92.40;;;;;;5098265;28;20207;-96
2022/09/15 02:25:17;;;;;;;15.00;9.30;;;17.80;92.20;;;;;;5088257;28;20283;-94
2022/09/15 02:27:49;;;;;;;11.43;9.23;;;17.80;92.20;;;;;;5096218;28;20223;-94
2022/09/15 02:30:20;;;;;;;17.80;11.30;;;17.80;92.20;;;;;;5103135;28;20555;-94
2022/09/15 02:32:54;;;;;;;15.97;10.07;;;17.80;92.20;;;;;;5096496;28;20663;-95
2022/09/15 02:35:35;;;;;;;10.17;9.07;;;17.80;92.30;;;;;;5095664;28;20200;-94
2022/09/15 02:38:04;;;;;;;14.53;9.43;;;17.80;92.40;;;;;;5098353;28;20958;-94
2022/09/15 02:40:41;;;;;;;12.10;8.93;;;17.80;92.30;;;;;;5095514;28;20295;-94
2022/09/15 02:43:11;;;;;;;17.03;11.33;;;17.80;92.50;;;;;;5095672;28;20210;-94
2022/09/15 02:45:40;;;;;;;12.90;9.13;;;17.80;92.50;;;;;;5080860;28;20223;-95
2022/09/15 02:48:11;;;;;;;12.60;9.93;;;17.80;92.50;;;;;;5092067;28;20230;-94
2022/09/15 02:50:40;;;;;;;15.20;9.53;;;17.80;92.50;;;;;;5096383;28;20196;-94
2022/09/15 02:53:13;;;;;;;12.67;9.13;;;17.80;92.50;;;;;;5095013;28;20233;-94
2022/09/15 02:55:42;;;;;;;10.90;8.93;;;17.90;92.70;;;;;;5096341;28;20262;-94
2022/09/15 02:58:09;;;;;;;18.27;10.70;;;17.90;92.70;;;;;;5086432;28;20203;-94
2022/09/15 03:00:37;;;;;;;15.37;9.77;;;17.90;92.60;;;;;;5083298;28;20212;-95
2022/09/15 03:03:06;;;;;;;14.03;10.27;;;17.90;92.60;;;;;;5098014;28;20613;-95
2022/09/15 03:05:39;;;;;;;13.30;9.40;;;17.90;92.60;;;;;;5105142;28;20241;-94
2022/09/15 03:08:09;;;;;;;16.60;11.60;;;17.90;92.70;;;;;;5093039;28;20224;-94
2022/09/15 03:10:38;;;;;;;22.03;11.53;;;17.90;92.70;;;;;;5092847;28;20228;-94
2022/09/15 03:13:06;;;;;;;13.80;10.13;;;17.90;92.60;;;;;;5082547;28;20263;-95
2022/09/15 03:15:39;;;;;;;13.30;9.33;;;17.90;92.60;;;;;;5096035;28;20195;-96
2022/09/15 03:18:07;;;;;;;17.77;10.37;;;17.90;92.70;;;;;;5095442;28;20199;-96
2022/09/15 03:20:37;;;;;;;13.77;9.57;;;17.90;92.60;;;;;;5095401;28;20209;-95
2022/09/15 03:23:05;;;;;;;12.80;9.80;;;17.90;92.60;;;;;;5079166;28;20204;-95
2022/09/15 03:25:34;;;;;;;17.33;10.63;;;17.90;92.60;;;;;;5078873;28;20274;-95
2022/09/15 03:28:03;;;;;;;16.03;11.07;;;17.90;92.70;;;;;;5095559;28;20219;-95
2022/09/15 03:30:31;;;;;;;19.20;11.23;;;17.90;92.70;;;;;;5093688;28;20682;-95
2022/09/15 03:33:00;;;;;;;13.20;10.53;;;17.90;92.70;;;;;;5102267;28;20214;-95
2022/09/15 03:35:27;;;;;;;15.40;9.57;;;17.90;92.70;;;;;;5095893;28;20922;-95
2022/09/15 03:37:57;;;;;;;14.60;10.87;;;18.00;92.80;;;;;;5088474;28;20239;-95
2022/09/15 03:43:07;;;;;;;15.90;10.93;;;17.90;92.70;;;;;;5082259;28;20203;-95
2022/09/15 03:45:37;;;;;;;13.10;10.17;;;18.00;92.80;;;;;;5093651;28;20234;-93
2022/09/15 03:48:06;;;;;;;14.33;9.87;;;18.00;93.10;;;;;;5094103;28;20215;-95
2022/09/15 03:50:34;;;;;;;17.47;10.67;;;18.00;93.20;;;;;;5094323;28;20231;-95
2022/09/15 03:53:04;;;;;;;10.77;9.10;;;18.00;93.30;;;;;;5095047;28;20207;-94
2022/09/15 03:55:32;;;;;;;12.17;9.83;;;18.00;93.40;;;;;;5095242;28;20203;-96
2022/09/15 03:57:59;;;;;;;14.90;10.07;;;18.00;93.10;;;;;;5094235;28;20196;-95
2022/09/15 04:00:26;;;;;;;12.20;9.50;;;18.00;93.10;;;;;;5093546;28;20249;-95
2022/09/15 04:02:53;;;;;;;12.77;9.97;;;18.00;93.00;;;;;;5095169;28;20296;-95
2022/09/15 04:05:24;;;;;;;15.43;10.50;;;18.00;93.00;;;;;;5091271;28;20199;-95
2022/09/15 04:07:51;;;;;;;15.17;11.20;;;18.10;93.10;;;;;;5100610;28;20237;-94
2022/09/15 04:10:23;;;;;;;17.00;10.93;;;18.10;92.90;;;;;;5095051;28;20238;-93
2022/09/15 04:12:51;;;;;;;17.13;11.53;;;18.10;93.00;;;;;;5093529;28;20204;-95
2022/09/15 04:15:21;;;;;;;20.80;12.30;;;18.10;92.90;;;;;;5083291;28;20196;-96
2022/09/15 04:17:49;;;;;;;11.67;8.83;;;18.10;92.90;;;;;;5089628;28;20298;-95
2022/09/15 04:20:17;;;;;;;14.20;10.27;;;18.10;92.90;;;;;;5092351;28;20204;-95
2022/09/15 04:22:45;;;;;;;13.67;9.43;;;18.10;92.90;;;;;;5092868;28;20289;-95
2022/09/15 04:25:15;;;;;;;12.83;8.83;;;18.20;92.90;;;;;;5094688;28;20264;-95
2022/09/15 04:27:44;;;;;;;16.10;10.67;;;18.10;92.90;;;;;;5094345;28;20323;-95
2022/09/15 04:30:13;;;;;;;18.43;11.03;;;18.10;92.90;;;;;;5078346;28;20221;-95
2022/09/15 04:32:43;;;;;;;16.00;10.07;;;18.10;92.80;;;;;;5091847;28;20244;-95
2022/09/15 04:35:11;;;;;;;13.83;10.20;;;18.20;92.90;;;;;;5104733;28;20196;-95
2022/09/15 04:37:39;;;;;;;17.07;10.73;;;18.10;92.70;;;;;;5102306;28;20206;-95
2022/09/15 04:40:07;;;;;;;15.60;9.30;;;18.10;92.70;;;;;;5099869;28;20211;-95
2022/09/15 04:42:35;;;;;;;18.43;10.97;;;18.10;92.90;;;;;;5095003;28;20203;-95
2022/09/15 04:45:04;;;;;;;16.67;10.20;;;18.10;92.70;;;;;;5096419;28;20207;-96
2022/09/15 04:47:33;;;;;;;14.03;9.50;;;18.10;92.70;;;;;;5095385;28;20226;-96
2022/09/15 04:50:01;;;;;;;17.53;9.83;;;18.10;92.60;;;;;;5096304;28;20211;-95
2022/09/15 04:52:29;;;;;;;9.73;8.40;;;18.10;92.60;;;;;;5096343;28;20257;-95
2022/09/15 04:54:56;;;;;;;12.97;8.40;;;18.10;92.70;;;;;;5098207;28;20203;-95
2022/09/15 04:57:26;;;;;;;13.67;8.80;;;18.10;92.70;;;;;;5098881;28;20276;-96
2022/09/15 04:59:54;;;;;;;14.90;9.80;;;18.10;92.80;;;;;;5099595;28;20344;-96
2022/09/15 05:02:24;;;;;;;16.67;10.47;;;18.10;92.90;;;;;;5091355;28;20216;-95
2022/09/15 05:04:51;;;;;;;11.80;7.73;;;18.10;93.00;;;;;;5087773;28;20617;-96
2022/09/15 05:07:19;;;;;;;19.43;10.80;;;18.10;92.90;;;;;;5093816;28;20248;-95
2022/09/15 05:09:46;;;;;;;20.17;9.97;;;18.10;92.90;;;;;;5089884;28;20624;-96
2022/09/15 05:12:14;;;;;;;13.30;9.10;;;18.20;92.90;;;;;;5089272;28;20675;-96
2022/09/15 05:14:45;;;;;;;14.40;9.33;;;18.20;92.90;;;;;;5095407;28;20224;-96
2022/09/15 05:17:13;;;;;;;10.93;8.20;;;18.20;92.90;;;;;;5095145;28;20203;-95
2022/09/15 05:19:42;;;;;;;18.20;10.10;;;18.20;92.80;;;;;;5092672;28;20205;-95
2022/09/15 05:22:10;;;;;;;17.37;9.50;;;18.20;92.90;;;;;;5098772;28;20234;-94
2022/09/15 05:24:38;;;;;;;15.53;9.50;;;18.20;92.90;;;;;;5097014;28;20231;-93
2022/09/15 05:27:10;;;;;;;21.50;9.60;;;18.20;92.90;;;;;;5095546;28;20258;-95
2022/09/15 05:29:37;;;;;;;14.20;8.10;;;18.20;92.90;;;;;;5088436;28;20205;-95
2022/09/15 05:32:05;;;;;;;19.40;10.07;;;18.20;92.90;;;;;;5089156;28;20231;-95
2022/09/15 05:34:32;;;;;;;14.20;8.47;;;18.20;92.90;;;;;;5087693;28;20955;-95
2022/09/15 05:37:01;;;;;;;20.67;9.93;;;18.20;92.90;;;;;;5089796;28;20713;-95
2022/09/15 05:39:30;;;;;;;12.63;7.40;;;18.20;93.20;;;;;;5089005;28;20325;-94
2022/09/15 05:41:58;;;;;;;19.93;9.57;;;18.20;93.20;;;;;;5091880;28;20195;-96
2022/09/15 05:44:25;;;;;;;10.20;6.67;;;18.20;93.20;;;;;;5086009;28;20210;-95
2022/09/15 05:46:53;;;;;;;13.10;8.03;;;18.20;93.20;;;;;;5094573;28;20250;-94
2022/09/15 05:49:20;;;;;;;11.33;7.53;;;18.20;93.20;;;;;;5095958;28;20257;-94
2022/09/15 05:51:48;;;;;;;12.67;7.20;;;18.20;93.20;;;;;;5095393;28;20207;-95
2022/09/15 05:54:17;;;;;;;12.40;7.43;;;18.20;93.20;;;;;;5094862;28;20649;-94
2022/09/15 05:56:44;;;;;;;14.30;7.17;;;18.20;93.20;;;;;;5088226;28;20218;-94
2022/09/15 05:59:12;;;;;;;12.57;6.97;;;18.30;93.30;;;;;;5095055;28;20708;-95
2022/09/15 06:01:40;;;;;;;13.33;6.73;;;18.30;93.20;;;;;;5100434;28;20204;-96
2022/09/15 06:04:07;;;;;;;11.90;6.83;;;18.30;93.10;;;;;;5109425;28;20214;-94
2022/09/15 06:06:34;;;;;;;14.30;6.50;;;18.30;93.10;;;;;;5110051;28;20211;-95
2022/09/15 06:09:01;;;;;;;14.20;6.83;;;18.30;93.20;;;;;;5107845;28;20204;-94
2022/09/15 06:11:33;;;;;;;14.27;6.93;;;18.30;93.20;;;;;;5093673;28;20199;-96
2022/09/15 06:14:01;;;;;;;9.87;5.63;;;18.30;93.30;;;;;;5097212;28;20203;-93
2022/09/15 06:16:35;;;;;;;9.57;5.93;;;18.30;93.30;;;;;;5096683;28;20211;-94
2022/09/15 06:19:05;;;;;;;8.87;3.80;;;18.40;93.40;;;;;;5096117;28;20205;-96
2022/09/15 06:21:35;;;;;;;10.60;4.77;;;18.40;93.20;;;;;;5098130;28;20247;-96
2022/09/15 06:24:06;;;;;;;6.43;4.33;;;18.40;93.00;;;;;;5084073;28;20220;-96
2022/09/15 06:26:41;;;;;;;10.77;4.80;;;18.40;93.30;;;;;;5096931;28;20204;-95
2022/09/15 06:29:12;;;;;;;9.07;4.90;;;18.40;93.40;;;;;;5098347;28;20196;-96
2022/09/15 06:31:40;;;;;;;9.10;4.43;;;18.40;93.40;;;;;;5098201;28;20200;-95
2022/09/15 06:34:11;;;;;;;12.33;4.83;;;18.40;93.30;;;;;;5084838;28;20256;-95
2022/09/15 06:36:44;;;;;;;9.67;4.20;;;18.50;93.40;;;;;;5085377;28;20295;-95
2022/09/15 06:39:12;;;;;;;7.60;4.67;;;18.40;93.40;;;;;;5095222;28;20203;-96
2022/09/15 06:41:44;;;;;;;7.77;3.60;;;18.50;93.40;;;;;;5097102;28;20217;-95
2022/09/15 06:44:12;;;;;;;6.67;3.57;;;18.50;93.50;;;;;;5096200;28;20198;-94
2022/09/15 06:46:40;;;;;;;8.43;3.93;;;18.50;93.50;;;;;;5091141;28;20266;-94
2022/09/15 06:49:09;;;;;;;11.10;4.43;;;18.50;93.40;;;;;;5092382;28;20205;-93
2022/09/15 06:51:38;;;;;;;7.50;3.40;;;18.50;93.50;;;;;;5095412;28;20320;-93
2022/09/15 06:54:06;;;;;;;8.33;3.60;;;18.60;93.50;;;;;;5095280;28;20226;-92
2022/09/15 06:56:33;;;;;;;6.53;3.20;;;18.60;93.10;;;;;;5096561;28;20224;-94
2022/09/15 06:59:02;;;;;;;10.43;3.50;;;18.60;93.10;;;;;;5094797;28;20302;-93
2022/09/15 07:01:31;;;;;;;8.77;3.97;;;18.70;93.10;;;;;;5094058;28;20271;-93
2022/09/15 07:04:01;;;;;;;5.83;3.13;;;18.70;93.10;;;;;;5092272;28;20272;-92
2022/09/15 07:06:29;;;;;;;7.73;2.60;;;18.70;93.00;;;;;;5088393;28;20202;-93
2022/09/15 07:08:59;;;;;;;7.73;3.23;;;18.80;93.00;;;;;;5073631;28;20320;-93
2022/09/15 07:11:27;;;;;;;9.50;3.27;;;18.70;93.20;;;;;;5082251;28;20223;-93
2022/09/15 07:13:55;;;;;;;13.03;4.63;;;18.80;93.00;;;;;;5091088;28;20246;-92
2022/09/15 07:16:27;;;;;;;8.77;3.63;;;18.80;93.20;;;;;;5092870;28;20286;-91
2022/09/15 07:18:57;;;;;;;6.80;2.97;;;18.90;93.10;;;;;;5094451;28;20250;-91
2022/09/15 07:21:25;;;;;;;7.13;2.53;;;18.90;92.80;;;;;;5093453;28;20201;-91
2022/09/15 07:23:56;;;;;;;5.97;2.50;;;19.00;92.90;;;;;;5094566;28;20186;-93
2022/09/15 07:26:25;;;;;;;5.83;2.40;;;19.00;93.00;;;;;;5093445;28;20232;-94
2022/09/15 07:28:55;;;;;;;4.87;2.60;;;19.10;93.00;;;;;;5092846;28;20249;-93
2022/09/15 07:31:24;;;;;;;11.57;4.20;;;19.20;92.40;;;;;;5090256;28;20213;-92
2022/09/15 07:33:57;;;;;;;5.53;2.57;;;19.20;92.60;;;;;;5083879;28;20264;-92
2022/09/15 07:36:26;;;;;;;7.20;2.63;;;19.20;91.90;;;;;;5093472;28;20199;-93
2022/09/15 07:38:56;;;;;;;6.70;2.90;;;19.20;92.20;;;;;;5096752;28;20754;-91
2022/09/15 07:41:25;;;;;;;10.07;3.13;;;19.30;92.10;;;;;;5094009;28;20707;-93
2022/09/15 07:43:54;;;;;;;7.20;2.90;;;19.30;91.80;;;;;;5093719;28;20249;-93
2022/09/15 07:46:35;;;;;;;6.63;2.73;;;19.40;91.90;;;;;;5095606;28;20243;-93
2022/09/15 07:49:07;;;;;;;5.47;2.47;;;19.40;91.00;;;;;;5095018;28;20777;-93
2022/09/15 07:51:36;;;;;;;7.27;2.63;;;19.40;91.10;;;;;;5090046;28;20708;-93
2022/09/15 07:54:05;;;;;;;9.20;2.97;;;19.50;91.20;;;;;;5091276;28;20208;-91
2022/09/15 07:56:33;;;;;;;7.60;2.53;;;19.50;90.90;;;;;;5088828;28;20202;-94
2022/09/15 07:59:00;;;;;;;6.23;2.53;;;19.60;90.90;;;;;;5071392;28;20205;-92
2022/09/15 08:01:27;;;;;;;9.13;2.97;;;19.60;90.80;;;;;;5079372;28;20214;-92
2022/09/15 08:03:54;;;;;;;9.97;2.87;;;19.60;90.50;;;;;;5094316;28;20205;-94
2022/09/15 08:06:26;;;;;;;6.13;2.63;;;19.60;90.50;;;;;;5094734;28;20277;-91
2022/09/15 08:08:53;;;;;;;6.37;2.33;;;19.70;90.70;;;;;;5095074;28;20277;-91
2022/09/15 08:11:22;;;;;;;9.03;3.33;;;19.70;90.60;;;;;;5095026;28;20716;-93
2022/09/15 08:13:52;;;;;;;7.23;2.47;;;19.80;90.60;;;;;;5094686;28;20225;-96
2022/09/15 08:16:20;;;;;;;10.77;2.60;;;19.90;90.30;;;;;;5079774;28;20264;-93
2022/09/15 08:18:49;;;;;;;3.77;1.90;;;19.90;90.60;;;;;;5095579;28;20202;-94
2022/09/15 08:21:20;;;;;;;9.20;3.63;;;20.00;90.60;;;;;;5094492;28;20229;-95
2022/09/15 08:23:54;;;;;;;5.23;2.17;;;20.00;90.20;;;;;;5092837;28;20248;-95
2022/09/15 08:26:21;;;;;;;7.53;2.53;;;20.10;90.30;;;;;;5091685;28;20225;-96
2022/09/15 08:28:48;;;;;;;4.00;1.90;;;20.10;90.40;;;;;;5092244;28;20262;-94
2022/09/15 08:31:17;;;;;;;4.47;2.00;;;20.20;90.30;;;;;;5093029;28;20211;-95
2022/09/15 08:33:49;;;;;;;6.90;2.60;;;20.30;90.30;;;;;;5093622;28;20203;-93
2022/09/15 08:36:17;;;;;;;4.53;2.07;;;20.40;91.60;;;;;;5090010;28;20580;-96
2022/09/15 08:38:51;;;;;;;4.00;1.87;;;20.40;90.80;;;;;;5074666;28;20196;-94
2022/09/15 08:41:24;;;;;;;6.03;1.80;;;20.50;91.70;;;;;;5079023;28;20205;-96
2022/09/15 08:43:58;;;;;;;5.57;2.17;;;20.60;91.90;;;;;;5093287;28;20293;-96
2022/09/15 08:46:32;;;;;;;10.53;3.67;;;20.70;90.90;;;;;;5091569;28;20201;-92
2022/09/15 08:49:08;;;;;;;9.97;2.90;;;20.80;89.20;;;;;;5089197;28;20244;-94
2022/09/15 08:51:43;;;;;;;6.97;2.13;;;20.90;85.70;;;;;;5089000;28;20206;-92
2022/09/15 08:54:20;;;;;;;8.33;2.83;;;21.00;86.30;;;;;;5087135;28;20255;-93
2022/09/15 08:57:00;;;;;;;8.33;2.57;;;21.10;83.70;;;;;;5089261;28;20714;-93
2022/09/15 08:59:46;;;;;;;11.57;2.87;;;21.10;83.70;;;;;;5090082;28;20186;-92
2022/09/15 09:03:08;;;;;;;9.73;2.80;;;21.20;85.10;;;;;;5090131;28;20214;-94
2022/09/15 09:06:27;;;;;;;8.50;3.03;;;21.40;84.10;;;;;;5091130;28;20205;-92
2022/09/15 09:09:08;;;;;;;7.30;2.93;;;21.50;80.80;;;;;;5026376;28;20313;-92
2022/09/15 09:11:59;;;;;;;6.80;2.73;;;21.60;81.20;;;;;;5088529;28;20207;-92
2022/09/15 09:14:37;;;;;;;6.50;2.23;;;21.70;79.90;;;;;;5089015;28;20226;-90
2022/09/15 09:17:25;;;;;;;5.17;2.03;;;21.80;78.90;;;;;;5089688;28;20375;-93
2022/09/15 09:20:16;;;;;;;6.90;2.63;;;21.90;78.50;;;;;;5086443;28;20745;-92
2022/09/15 09:22:46;;;;;;;8.53;2.57;;;22.00;79.20;;;;;;5090106;28;20763;-89
2022/09/15 09:25:17;;;;;;;8.33;2.70;;;22.10;80.60;;;;;;5092224;28;20680;-93
2022/09/15 09:27:48;;;;;;;5.63;2.23;;;22.20;78.00;;;;;;5091935;28;20329;-91
2022/09/15 09:30:17;;;;;;;8.30;3.13;;;22.20;77.00;;;;;;5092009;28;20233;-93
2022/09/15 09:32:47;;;;;;;10.63;2.87;;;22.30;78.30;;;;;;5090290;28;20498;-90
2022/09/15 09:35:22;;;;;;;7.53;2.73;;;22.30;76.40;;;;;;5092071;28;20664;-92
2022/09/15 09:37:51;;;;;;;4.77;1.90;;;22.40;74.80;;;;;;5092176;28;21003;-93
2022/09/15 09:40:19;;;;;;;7.70;3.00;;;22.40;75.50;;;;;;5091930;28;20226;-90
2022/09/15 09:42:49;;;;;;;6.77;2.67;;;22.40;75.80;;;;;;5091797;28;21073;-91
2022/09/15 09:45:19;;;;;;;9.03;3.07;;;22.40;76.20;;;;;;5094009;28;20635;-96
2022/09/15 09:47:47;;;;;;;8.40;2.27;;;22.40;75.90;;;;;;5091429;28;20262;-93
2022/09/15 09:50:37;;;;;;;8.70;2.30;;;22.40;75.60;;;;;;5094203;28;20269;-91
2022/09/15 09:53:29;;;;;;;11.97;3.63;;;22.40;74.20;;;;;;5094536;28;20633;-93
2022/09/15 09:56:17;;;;;;;9.17;3.23;;;22.40;74.10;;;;;;5093934;28;20240;-92
2022/09/15 09:58:45;;;;;;;8.77;2.67;;;22.40;74.00;;;;;;5093269;28;20202;-92
2022/09/15 10:01:14;;;;;;;7.70;2.80;;;22.40;74.30;;;;;;5091183;28;20307;-93
2022/09/15 10:03:44;;;;;;;5.57;2.43;;;22.40;74.70;;;;;;5094832;28;20226;-92
2022/09/15 10:06:16;;;;;;;10.80;2.97;;;22.30;74.00;;;;;;5093648;28;20643;-93
2022/09/15 10:08:57;;;;;;;7.33;2.33;;;22.30;73.90;;;;;;5093617;28;20713;-93
2022/09/15 10:11:40;;;;;;;6.20;2.27;;;22.20;72.10;;;;;;5092937;28;20240;-92
2022/09/15 10:14:21;;;;;;;8.20;1.80;;;22.20;72.30;;;;;;5104181;28;20206;-93
2022/09/15 10:17:00;;;;;;;9.20;3.33;;;22.10;72.20;;;;;;5109428;28;20237;-90
2022/09/15 10:19:29;;;;;;;7.97;2.50;;;22.10;71.10;;;;;;5100846;28;20199;-93
2022/09/15 10:21:57;;;;;;;7.73;2.40;;;22.10;73.00;;;;;;5095321;28;20238;-92
2022/09/15 10:24:34;;;;;;;4.57;1.90;;;22.00;73.00;;;;;;5097378;28;20199;-92
2022/09/15 10:27:17;;;;;;;7.37;2.40;;;22.00;72.60;;;;;;5093217;28;20214;-94
2022/09/15 10:29:48;;;;;;;4.20;1.87;;;22.00;70.80;;;;;;5094181;28;20266;-92
2022/09/15 10:32:24;;;;;;;7.57;2.77;;;22.00;70.30;;;;;;5093286;28;20550;-92
2022/09/15 10:35:00;;;;;;;5.10;1.73;;;22.00;69.90;;;;;;5094315;28;20294;-93
2022/09/15 10:37:32;;;;;;;7.40;2.43;;;21.90;68.40;;;;;;5078535;28;20738;-91
2022/09/15 10:40:01;;;;;;;6.13;2.27;;;21.90;69.80;;;;;;5089598;28;20207;-91
2022/09/15 10:42:45;;;;;;;3.57;1.63;;;22.00;70.80;;;;;;5094174;28;20289;-93
2022/09/15 10:45:25;;;;;;;11.07;2.67;;;22.00;69.10;;;;;;5093809;28;20652;-91
2022/09/15 10:48:06;;;;;;;6.67;1.73;;;22.10;68.70;;;;;;5091778;28;20213;-91
2022/09/15 10:50:45;;;;;;;3.70;1.37;;;22.10;68.20;;;;;;5094761;28;20209;-92
2022/09/15 10:53:20;;;;;;;5.50;1.90;;;22.20;68.10;;;;;;5079183;28;20207;-94
2022/09/15 10:55:59;;;;;;;4.13;1.90;;;22.30;67.40;;;;;;5091710;28;20199;-92
2022/09/15 10:58:48;;;;;;;7.87;2.67;;;22.40;67.30;;;;;;5091877;28;20207;-91
2022/09/15 11:01:42;;;;;;;4.87;1.90;;;22.50;67.70;;;;;;5092057;28;20637;-93
2022/09/15 11:04:43;;;;;;;11.53;3.47;;;22.70;67.70;;;;;;5069849;28;20202;-91
2022/09/15 11:07:24;;;;;;;7.70;2.63;;;22.90;67.70;;;;;;5093154;28;20205;-92
2022/09/15 11:09:59;;;;;;;6.17;2.50;;;23.10;67.10;;;;;;5095052;28;20214;-93
2022/09/15 11:12:40;;;;;;;8.43;2.23;;;23.30;65.70;;;;;;5093923;28;20209;-92
2022/09/15 11:15:21;;;;;;;6.60;2.10;;;23.40;64.20;;;;;;5095004;28;20275;-92
2022/09/15 11:18:17;;;;;;;3.43;1.47;;;23.60;63.20;;;;;;5095918;28;20202;-91
2022/09/15 11:21:06;;;;;;;8.00;3.07;;;23.80;64.10;;;;;;5094958;28;20691;-93
2022/09/15 11:23:37;;;;;;;4.77;2.07;;;23.90;62.80;;;;;;5094359;28;20199;-92
2022/09/15 11:26:12;;;;;;;4.80;2.13;;;24.10;64.30;;;;;;5090967;28;20314;-93
2022/09/15 11:28:46;;;;;;;4.60;1.67;;;24.30;62.40;;;;;;5074668;28;20219;-92
2022/09/15 11:31:19;;;;;;;6.60;2.63;;;24.40;63.40;;;;;;5085788;28;20207;-94
2022/09/15 11:33:58;;;;;;;4.90;2.10;;;24.50;62.20;;;;;;5094300;28;20203;-92
2022/09/15 11:36:31;;;;;;;6.20;2.07;;;24.70;61.10;;;;;;5093039;28;20645;-93
2022/09/15 11:39:07;;;;;;;6.37;2.03;;;24.80;61.30;;;;;;5100484;28;20227;-94
2022/09/15 11:41:39;;;;;;;5.93;2.40;;;24.90;60.50;;;;;;5103913;28;20198;-94
2022/09/15 11:44:16;;;;;;;4.43;1.70;;;25.00;61.30;;;;;;5101069;28;20635;-95
2022/09/15 11:46:58;;;;;;;3.73;1.77;;;25.10;60.40;;;;;;5109645;28;20202;-92
2022/09/15 11:49:35;;;;;;;6.37;1.90;;;25.20;59.90;;;;;;5075433;28;20238;-94
2022/09/15 11:52:11;;;;;;;3.13;1.33;;;25.30;60.00;;;;;;5084275;28;20201;-91
2022/09/15 11:54:43;;;;;;;9.80;2.53;;;25.30;59.20;;;;;;5095632;28;20198;-96
2022/09/15 11:57:18;;;;;;;6.80;2.37;;;25.40;59.70;;;;;;5101583;28;20210;-94
2022/09/15 11:59:53;;;;;;;7.50;2.97;;;25.50;59.80;;;;;;5101735;28;20210;-93
2022/09/15 12:02:29;;;;;;;10.10;3.43;;;25.60;60.00;;;;;;5100839;28;20237;-94
2022/09/15 12:05:13;;;;;;;4.63;2.17;;;25.70;60.00;;;;;;5104766;28;20198;-95
2022/09/15 12:07:46;;;;;;;6.00;2.17;;;25.80;59.10;;;;;;5105817;28;20206;-95
2022/09/15 12:10:23;;;;;;;6.37;2.13;;;25.90;59.10;;;;;;5106611;28;20229;-96
2022/09/15 12:12:52;;;;;;;5.47;2.37;;;26.00;58.20;;;;;;5094913;28;21113;-92
2022/09/15 12:15:26;;;;;;;5.00;2.20;;;26.10;59.20;;;;;;5091155;28;20677;-92
2022/09/15 12:18:02;;;;;;;4.23;1.53;;;26.20;58.80;;;;;;5095604;28;20202;-92
2022/09/15 12:20:37;;;;;;;5.93;2.27;;;26.30;58.10;;;;;;5094240;28;20202;-90
2022/09/15 12:23:19;;;;;;;5.17;2.23;;;26.40;57.60;;;;;;5092241;28;20241;-93
2022/09/15 12:26:03;;;;;;;5.77;2.33;;;26.50;58.10;;;;;;5092343;28;20596;-90
2022/09/15 12:28:53;;;;;;;5.30;2.23;;;26.60;57.30;;;;;;5092267;28;20209;-92
2022/09/15 12:31:35;;;;;;;7.37;2.73;;;26.70;57.20;;;;;;5087432;28;20297;-92
2022/09/15 12:34:29;;;;;;;7.50;3.10;;;26.70;56.90;;;;;;5091447;28;20202;-92
2022/09/15 12:37:08;;;;;;;5.93;2.10;;;26.70;56.90;;;;;;5095116;28;20283;-92
2022/09/15 12:39:40;;;;;;;6.60;2.40;;;26.60;56.60;;;;;;5093846;28;20202;-92
2022/09/15 12:42:18;;;;;;;6.63;1.97;;;26.60;57.10;;;;;;5093933;28;20206;-93
2022/09/15 12:44:51;;;;;;;7.30;2.00;;;26.50;56.30;;;;;;5094940;28;20214;-92
2022/09/15 12:47:24;;;;;;;4.60;1.77;;;26.40;56.40;;;;;;5093772;28;20199;-94
2022/09/15 12:49:56;;;;;;;5.23;1.90;;;26.30;56.20;;;;;;5095467;28;20246;-93
2022/09/15 12:52:29;;;;;;;5.80;2.13;;;26.30;56.00;;;;;;5094879;28;20203;-94
2022/09/15 12:55:03;;;;;;;9.50;3.50;;;26.30;56.50;;;;;;5090553;28;20260;-94
2022/09/15 12:57:34;;;;;;;4.87;2.33;;;26.30;57.20;;;;;;5084493;28;20601;-95
2022/09/15 13:00:35;;;;;;;4.03;1.63;;;26.40;57.40;;;;;;5098258;28;20226;-92
2022/09/15 13:03:08;;;;;;;5.07;2.40;;;26.50;56.60;;;;;;5099828;28;20202;-92
2022/09/15 13:06:07;;;;;;;4.33;1.63;;;26.70;56.60;;;;;;5099064;28;20266;-94
2022/09/15 13:09:20;;;;;;;6.13;2.07;;;26.90;55.80;;;;;;5078171;28;20227;-92
2022/09/15 13:11:50;;;;;;;4.80;1.83;;;27.00;55.60;;;;;;5087309;28;20253;-90
2022/09/15 13:14:24;;;;;;;6.70;2.00;;;27.20;56.00;;;;;;5085102;28;20635;-92
2022/09/15 13:16:58;;;;;;;5.90;2.10;;;27.30;55.40;;;;;;5087007;28;20550;-94
2022/09/15 13:19:39;;;;;;;4.47;1.83;;;27.40;55.40;;;;;;5098181;28;20210;-94
2022/09/15 13:22:14;;;;;;;6.17;2.40;;;27.60;54.80;;;;;;5096978;28;20187;-93
2022/09/15 13:24:53;;;;;;;5.83;3.03;;;27.70;55.10;;;;;;5099790;28;20712;-91
2022/09/15 13:27:23;;;;;;;3.87;1.83;;;27.70;53.50;;;;;;5097010;28;20282;-91